METAR AND TAF INFORMATION
METAR FOR SURV
ADDS - METARS form results

(0605 UTC 23 May 2019)
Data provider http://aviationweather.gov/metar/data/
 
Forecast for: SURV (RIVERA , UY)
Text: SURV 230520Z 2306/2406 14010G20KT 9999 BKN008 OVC070 TX17/2318Z TN13/2310Z
Forecast period: 0600 UTC 23 May 2019 to 0600 UTC 24 May 2019
Forecast type: FROM: standard forecast or significant change
Winds: from the SE (140 degrees) at 12 MPH (10 knots; 5.1 m/s)
gusting to 23 MPH (20 knots; 10.3 m/s)
Visibility: 6 or more miles 10+ km)
Ceiling: 800 feet AGL
Clouds: broken clouds at 800 feet AGL
overcast cloud deck at 7000 feet AGL
Weather: no significant weather forecast for this period
Text: TEMPO 2306/2315 1500 RADZ OVC003
Forecast period: 0600 to 1500 UTC 23 May 2019
Forecast type: TEMPORARY: The following changes expected for less than half the time period
Visibility: 0.93 miles (1.50 km)
Ceiling: 300 feet AGL
Clouds: overcast cloud deck at 300 feet AGL
Weather: RA DZ  (moderate rain, moderate drizzle)

 AIRPORT MAP

 RUNWAY INFORMATION
Runway 05 Runway length 6004 ft Runway width 0 ft
Runway elevation 669 ft Runway displaced threshold 0 ft Runway heading 0
Runway 23 Runway length 6004 ft Runway width 0 ft
Runway elevation 719 ft Runway displaced threshold 0 ft Runway heading 0

 AIRPORT FREQUENCIES

 AIRPORT NEAR NAVIGATION AIDS
Type NDB Name Rivera Frequency 260 KHZ
Type NDB Name Rivera Frequency 305 KHZ



Powered by Virtual Airlines Manager [v2.6.2]